FYI1648 LEMD-LEBL
Flight info
| Callsign | FYI1648 |
|---|---|
| Flight time | 0h 52m |
| Altitude | 30000 |
| Route | PINAR N870 PONEN T600 CASPE |
| Aircraft | A320/M-SDE3FGHIRWY/LB1 |
Departure
| Time | 2026-05-07 20:22 |
|---|---|
| Airport | Adolfo Suárez Madrid–Barajas Airport (LEMD) |
Arrival
| Time | 2026-05-07 21:14 |
|---|---|
| Airport | Josep Tarradellas Barcelona-El Prat Airport (LEBL) |
| Time | Latitude | Longitude | Altitude | Speed | Heading |
|---|---|---|---|---|---|
| 2026-05-07 20:04 | 40.49271 | -3.58965 | 2032 ft | 0 kts | 271° |
| 2026-05-07 20:11 | 40.49270 | -3.58951 | 2024 ft | 4 kts | 271° |
| 2026-05-07 20:12 | 40.49270 | -3.58922 | 2039 ft | 3 kts | 270° |
| 2026-05-07 20:12 | 40.49265 | -3.58892 | 2033 ft | 4 kts | 318° |
| 2026-05-07 20:12 | 40.49244 | -3.58882 | 2031 ft | 4 kts | 359° |
| 2026-05-07 20:12 | 40.49217 | -3.58882 | 2031 ft | 4 kts | 359° |
| 2026-05-07 20:13 | 40.49206 | -3.58882 | 2031 ft | 0 kts | 359° |
| 2026-05-07 20:16 | 40.49236 | -3.58857 | 2032 ft | 7 kts | 63° |
| 2026-05-07 20:16 | 40.49240 | -3.58795 | 2027 ft | 8 kts | 89° |
| 2026-05-07 20:16 | 40.49241 | -3.58727 | 2025 ft | 7 kts | 89° |
| 2026-05-07 20:17 | 40.49241 | -3.58626 | 2027 ft | 19 kts | 90° |
| 2026-05-07 20:17 | 40.49242 | -3.58435 | 2014 ft | 23 kts | 90° |
| 2026-05-07 20:17 | 40.49242 | -3.58205 | 2007 ft | 27 kts | 90° |
| 2026-05-07 20:17 | 40.49244 | -3.57939 | 1999 ft | 31 kts | 89° |
| 2026-05-07 20:18 | 40.49244 | -3.57709 | 1990 ft | 19 kts | 90° |
| 2026-05-07 20:18 | 40.49252 | -3.57607 | 1987 ft | 10 kts | 75° |
| 2026-05-07 20:18 | 40.49267 | -3.57563 | 1987 ft | 0 kts | 59° |
| 2026-05-07 20:18 | 40.49281 | -3.57534 | 1987 ft | 9 kts | 59° |
| 2026-05-07 20:19 | 40.49358 | -3.57466 | 1984 ft | 16 kts | 25° |
| 2026-05-07 20:19 | 40.49431 | -3.57453 | 1983 ft | 0 kts | 0° |
| 2026-05-07 20:21 | 40.49467 | -3.57452 | 1983 ft | 29 kts | 0° |
| 2026-05-07 20:21 | 40.49930 | -3.57456 | 1986 ft | 101 kts | 359° |
| 2026-05-07 20:22 | 40.50814 | -3.57462 | 1996 ft | 154 kts | 360° |
| 2026-05-07 20:22 | 40.52001 | -3.57463 | 2339 ft | 172 kts | 1° |
| 2026-05-07 20:22 | 40.53183 | -3.57474 | 3142 ft | 169 kts | 359° |
| 2026-05-07 20:22 | 40.54366 | -3.57495 | 3820 ft | 175 kts | 360° |
| 2026-05-07 20:23 | 40.55657 | -3.57460 | 4158 ft | 195 kts | 10° |
| 2026-05-07 20:23 | 40.57018 | -3.56967 | 4495 ft | 212 kts | 19° |
| 2026-05-07 20:23 | 40.58477 | -3.56334 | 4797 ft | 232 kts | 20° |
| 2026-05-07 20:23 | 40.60056 | -3.55651 | 5390 ft | 241 kts | 18° |
| 2026-05-07 20:24 | 40.61675 | -3.54998 | 6132 ft | 246 kts | 17° |
| 2026-05-07 20:24 | 40.63335 | -3.54374 | 6871 ft | 250 kts | 13° |
| 2026-05-07 20:24 | 40.65072 | -3.54112 | 7606 ft | 253 kts | 3° |
| 2026-05-07 20:24 | 40.66843 | -3.53965 | 8386 ft | 257 kts | 3° |
| 2026-05-07 20:25 | 40.68627 | -3.53712 | 9153 ft | 260 kts | 14° |
| 2026-05-07 20:25 | 40.70303 | -3.52785 | 9921 ft | 265 kts | 33° |
| 2026-05-07 20:25 | 40.71724 | -3.51113 | 10235 ft | 286 kts | 54° |
| 2026-05-07 20:25 | 40.72898 | -3.48867 | 10482 ft | 310 kts | 57° |
| 2026-05-07 20:26 | 40.74148 | -3.46423 | 10720 ft | 332 kts | 57° |
| 2026-05-07 20:26 | 40.75464 | -3.43857 | 11263 ft | 342 kts | 56° |
| 2026-05-07 20:26 | 40.76814 | -3.41243 | 11986 ft | 346 kts | 56° |
| 2026-05-07 20:26 | 40.78178 | -3.38608 | 12717 ft | 350 kts | 56° |
| 2026-05-07 20:27 | 40.79558 | -3.35940 | 13444 ft | 354 kts | 56° |
| 2026-05-07 20:27 | 40.80951 | -3.33244 | 14097 ft | 357 kts | 56° |
| 2026-05-07 20:27 | 40.82360 | -3.30523 | 14715 ft | 361 kts | 56° |
| 2026-05-07 20:27 | 40.83783 | -3.27779 | 15334 ft | 364 kts | 56° |
| 2026-05-07 20:28 | 40.85095 | -3.24904 | 15942 ft | 368 kts | 65° |
| 2026-05-07 20:28 | 40.85978 | -3.21722 | 16549 ft | 371 kts | 75° |
| 2026-05-07 20:28 | 40.86621 | -3.18410 | 17172 ft | 374 kts | 76° |
| 2026-05-07 20:28 | 40.87276 | -3.15066 | 17771 ft | 378 kts | 76° |
| 2026-05-07 20:29 | 40.87945 | -3.11687 | 18348 ft | 382 kts | 75° |
| 2026-05-07 20:29 | 40.88622 | -3.08280 | 18840 ft | 385 kts | 75° |
| 2026-05-07 20:29 | 40.89304 | -3.04838 | 19334 ft | 389 kts | 75° |
| 2026-05-07 20:29 | 40.89992 | -3.01356 | 19809 ft | 394 kts | 75° |
| 2026-05-07 20:30 | 40.90683 | -2.97840 | 20293 ft | 398 kts | 75° |
| 2026-05-07 20:30 | 40.91371 | -2.94329 | 20764 ft | 401 kts | 75° |
| 2026-05-07 20:30 | 40.92073 | -2.90743 | 21245 ft | 405 kts | 74° |
| 2026-05-07 20:30 | 40.92781 | -2.87123 | 21712 ft | 409 kts | 74° |
| 2026-05-07 20:31 | 40.93491 | -2.83471 | 22174 ft | 412 kts | 74° |
| 2026-05-07 20:31 | 40.94206 | -2.79780 | 22641 ft | 416 kts | 74° |
| 2026-05-07 20:31 | 40.94926 | -2.76059 | 23094 ft | 419 kts | 74° |
| 2026-05-07 20:31 | 40.95650 | -2.72306 | 23532 ft | 423 kts | 74° |
| 2026-05-07 20:32 | 40.96380 | -2.68519 | 23896 ft | 427 kts | 73° |
| 2026-05-07 20:32 | 40.97115 | -2.64698 | 24254 ft | 430 kts | 74° |
| 2026-05-07 20:32 | 40.97855 | -2.60849 | 24602 ft | 434 kts | 74° |
| 2026-05-07 20:32 | 40.98601 | -2.56964 | 24934 ft | 437 kts | 74° |
| 2026-05-07 20:33 | 40.99350 | -2.53048 | 25258 ft | 441 kts | 73° |
| 2026-05-07 20:33 | 41.00105 | -2.49093 | 25580 ft | 445 kts | 73° |
| 2026-05-07 20:33 | 41.00863 | -2.45106 | 25900 ft | 449 kts | 73° |
| 2026-05-07 20:33 | 41.01627 | -2.41086 | 26214 ft | 452 kts | 73° |
| 2026-05-07 20:34 | 41.02397 | -2.37030 | 26529 ft | 456 kts | 73° |
| 2026-05-07 20:34 | 41.03172 | -2.32946 | 26840 ft | 460 kts | 72° |
| 2026-05-07 20:34 | 41.03954 | -2.28826 | 27167 ft | 463 kts | 73° |
| 2026-05-07 20:34 | 41.04740 | -2.24676 | 27490 ft | 466 kts | 72° |
| 2026-05-07 20:35 | 41.05509 | -2.20619 | 27787 ft | 469 kts | 72° |
| 2026-05-07 20:35 | 41.06326 | -2.16287 | 28094 ft | 473 kts | 72° |
| 2026-05-07 20:35 | 41.07124 | -2.12050 | 28391 ft | 476 kts | 72° |
| 2026-05-07 20:35 | 41.07926 | -2.07776 | 28680 ft | 479 kts | 72° |
| 2026-05-07 20:36 | 41.08731 | -2.03475 | 28974 ft | 483 kts | 71° |
| 2026-05-07 20:36 | 41.09539 | -1.99138 | 29264 ft | 486 kts | 71° |
| 2026-05-07 20:36 | 41.10349 | -1.94776 | 29542 ft | 489 kts | 71° |
| 2026-05-07 20:36 | 41.11165 | -1.90378 | 29848 ft | 492 kts | 71° |
| 2026-05-07 20:37 | 41.11979 | -1.85978 | 29988 ft | 489 kts | 72° |
| 2026-05-07 20:37 | 41.12765 | -1.81673 | 29982 ft | 472 kts | 72° |
| 2026-05-07 20:37 | 41.13515 | -1.77540 | 29981 ft | 463 kts | 72° |
| 2026-05-07 20:38 | 41.15024 | -1.69285 | 29989 ft | 459 kts | 71° |
| 2026-05-07 20:38 | 41.16537 | -1.61064 | 29987 ft | 459 kts | 71° |
| 2026-05-07 20:39 | 41.18044 | -1.52831 | 29987 ft | 459 kts | 71° |
| 2026-05-07 20:39 | 41.19518 | -1.44663 | 29984 ft | 452 kts | 73° |
| 2026-05-07 20:40 | 41.20979 | -1.36575 | 29979 ft | 450 kts | 73° |
| 2026-05-07 20:40 | 41.22438 | -1.28495 | 29977 ft | 450 kts | 73° |
| 2026-05-07 20:41 | 41.23880 | -1.20406 | 29973 ft | 450 kts | 73° |
| 2026-05-07 20:41 | 41.25324 | -1.12316 | 29986 ft | 450 kts | 74° |
| 2026-05-07 20:42 | 41.26757 | -1.04239 | 30003 ft | 448 kts | 75° |
| 2026-05-07 20:42 | 41.28167 | -0.96196 | 30002 ft | 446 kts | 74° |
| 2026-05-07 20:43 | 41.29582 | -0.88175 | 29996 ft | 445 kts | 74° |
| 2026-05-07 20:43 | 41.30990 | -0.80160 | 29992 ft | 445 kts | 75° |
| 2026-05-07 20:43 | 41.31680 | -0.76194 | 29974 ft | 433 kts | 75° |
| 2026-05-07 20:44 | 41.32344 | -0.72368 | 29975 ft | 417 kts | 76° |
| 2026-05-07 20:44 | 41.33625 | -0.64971 | 29977 ft | 407 kts | 76° |
| 2026-05-07 20:45 | 41.34845 | -0.57638 | 29992 ft | 405 kts | 82° |
| 2026-05-07 20:45 | 41.34891 | -0.50211 | 29979 ft | 400 kts | 100° |
| 2026-05-07 20:46 | 41.34195 | -0.44109 | 29978 ft | 403 kts | 99° |
| 2026-05-07 20:46 | 41.33231 | -0.35513 | 29977 ft | 405 kts | 99° |
| 2026-05-07 20:47 | 41.32402 | -0.28116 | 29972 ft | 404 kts | 99° |
| 2026-05-07 20:47 | 41.31700 | -0.21914 | 29968 ft | 405 kts | 99° |
| 2026-05-07 20:47 | 41.31135 | -0.16971 | 29550 ft | 410 kts | 99° |
| 2026-05-07 20:48 | 41.30844 | -0.14445 | 29263 ft | 407 kts | 99° |
| 2026-05-07 20:48 | 41.30419 | -0.10744 | 28800 ft | 403 kts | 100° |
| 2026-05-07 20:48 | 41.29996 | -0.07072 | 28361 ft | 399 kts | 100° |
| 2026-05-07 20:48 | 41.29575 | -0.03444 | 27926 ft | 395 kts | 100° |
| 2026-05-07 20:49 | 41.29163 | 0.00110 | 27487 ft | 392 kts | 102° |
| 2026-05-07 20:49 | 41.28746 | 0.03718 | 27060 ft | 388 kts | 102° |
| 2026-05-07 20:49 | 41.28338 | 0.07248 | 26605 ft | 385 kts | 102° |
| 2026-05-07 20:49 | 41.27930 | 0.10754 | 26176 ft | 382 kts | 102° |
| 2026-05-07 20:50 | 41.27522 | 0.14231 | 25738 ft | 380 kts | 102° |
| 2026-05-07 20:50 | 41.27112 | 0.17690 | 25283 ft | 378 kts | 102° |
| 2026-05-07 20:50 | 41.26702 | 0.21137 | 24841 ft | 376 kts | 102° |
| 2026-05-07 20:50 | 41.26287 | 0.24519 | 24548 ft | 376 kts | 103° |
| 2026-05-07 20:51 | 41.25857 | 0.27930 | 24221 ft | 374 kts | 103° |
| 2026-05-07 20:51 | 41.25423 | 0.31325 | 23903 ft | 372 kts | 103° |
| 2026-05-07 20:51 | 41.24989 | 0.34703 | 23579 ft | 370 kts | 103° |
| 2026-05-07 20:51 | 41.24560 | 0.38065 | 23222 ft | 368 kts | 103° |
| 2026-05-07 20:52 | 41.24133 | 0.41405 | 22910 ft | 366 kts | 103° |
| 2026-05-07 20:52 | 41.23709 | 0.44734 | 22585 ft | 364 kts | 103° |
| 2026-05-07 20:52 | 41.23286 | 0.48043 | 22271 ft | 363 kts | 103° |
| 2026-05-07 20:52 | 41.22865 | 0.51337 | 21956 ft | 361 kts | 103° |
| 2026-05-07 20:53 | 41.22439 | 0.54619 | 21631 ft | 359 kts | 104° |
| 2026-05-07 20:53 | 41.21718 | 0.57756 | 21332 ft | 353 kts | 117° |
| 2026-05-07 20:53 | 41.20543 | 0.60580 | 21027 ft | 347 kts | 128° |
| 2026-05-07 20:53 | 41.18991 | 0.63003 | 20733 ft | 343 kts | 138° |
| 2026-05-07 20:54 | 41.17301 | 0.65241 | 20433 ft | 343 kts | 137° |
| 2026-05-07 20:54 | 41.15621 | 0.67479 | 20131 ft | 342 kts | 137° |
| 2026-05-07 20:54 | 41.13947 | 0.69718 | 19834 ft | 341 kts | 137° |
| 2026-05-07 20:54 | 41.12276 | 0.71951 | 19531 ft | 341 kts | 137° |
| 2026-05-07 20:55 | 41.10607 | 0.74183 | 19237 ft | 340 kts | 137° |
| 2026-05-07 20:55 | 41.08940 | 0.76407 | 18943 ft | 340 kts | 137° |
| 2026-05-07 20:55 | 41.07278 | 0.78626 | 18661 ft | 339 kts | 136° |
| 2026-05-07 20:55 | 41.05617 | 0.80841 | 18354 ft | 338 kts | 136° |
| 2026-05-07 20:56 | 41.03956 | 0.83048 | 18032 ft | 337 kts | 136° |
| 2026-05-07 20:56 | 41.02304 | 0.85243 | 17733 ft | 336 kts | 136° |
| 2026-05-07 20:56 | 41.00659 | 0.87427 | 17435 ft | 334 kts | 136° |
| 2026-05-07 20:56 | 40.99146 | 0.89750 | 17148 ft | 334 kts | 124° |
| 2026-05-07 20:57 | 40.98074 | 0.92463 | 16864 ft | 333 kts | 110° |
| 2026-05-07 20:57 | 40.97485 | 0.95415 | 16568 ft | 331 kts | 101° |
| 2026-05-07 20:57 | 40.97044 | 0.98399 | 16282 ft | 330 kts | 101° |
| 2026-05-07 20:57 | 40.96605 | 1.01370 | 15995 ft | 328 kts | 101° |
| 2026-05-07 20:58 | 40.96172 | 1.04285 | 15714 ft | 326 kts | 101° |
| 2026-05-07 20:58 | 40.95732 | 1.07223 | 15430 ft | 325 kts | 101° |
| 2026-05-07 20:58 | 40.95293 | 1.10143 | 15142 ft | 323 kts | 101° |
| 2026-05-07 20:58 | 40.94856 | 1.13049 | 14861 ft | 321 kts | 101° |
| 2026-05-07 20:59 | 40.94418 | 1.15940 | 14580 ft | 319 kts | 101° |
| 2026-05-07 20:59 | 40.93982 | 1.18807 | 14300 ft | 317 kts | 101° |
| 2026-05-07 20:59 | 40.93550 | 1.21658 | 14021 ft | 314 kts | 101° |
| 2026-05-07 20:59 | 40.93123 | 1.24482 | 13747 ft | 312 kts | 101° |
| 2026-05-07 21:00 | 40.92698 | 1.27285 | 13439 ft | 310 kts | 101° |
| 2026-05-07 21:00 | 40.92276 | 1.30065 | 13173 ft | 308 kts | 100° |
| 2026-05-07 21:00 | 40.91860 | 1.32831 | 12867 ft | 306 kts | 99° |
| 2026-05-07 21:00 | 40.91799 | 1.35640 | 12417 ft | 306 kts | 78° |
| 2026-05-07 21:01 | 40.92497 | 1.38240 | 12153 ft | 299 kts | 59° |
| 2026-05-07 21:01 | 40.93737 | 1.40441 | 11731 ft | 299 kts | 51° |
| 2026-05-07 21:01 | 40.95045 | 1.42572 | 11365 ft | 298 kts | 51° |
| 2026-05-07 21:01 | 40.96349 | 1.44688 | 11032 ft | 295 kts | 51° |
| 2026-05-07 21:02 | 40.97613 | 1.46738 | 10885 ft | 278 kts | 51° |
| 2026-05-07 21:02 | 40.98793 | 1.48654 | 10746 ft | 259 kts | 51° |
| 2026-05-07 21:02 | 40.99893 | 1.50448 | 10623 ft | 243 kts | 51° |
| 2026-05-07 21:02 | 41.00923 | 1.52127 | 10495 ft | 228 kts | 51° |
| 2026-05-07 21:03 | 41.01894 | 1.53706 | 10362 ft | 214 kts | 52° |
| 2026-05-07 21:03 | 41.02806 | 1.55192 | 10229 ft | 202 kts | 52° |
| 2026-05-07 21:03 | 41.03664 | 1.56580 | 10103 ft | 189 kts | 49° |
| 2026-05-07 21:03 | 41.04691 | 1.57719 | 9606 ft | 197 kts | 31° |
| 2026-05-07 21:04 | 41.05983 | 1.58404 | 9062 ft | 204 kts | 14° |
| 2026-05-07 21:04 | 41.07417 | 1.58514 | 8538 ft | 209 kts | 355° |
| 2026-05-07 21:04 | 41.08790 | 1.58017 | 8283 ft | 200 kts | 336° |
| 2026-05-07 21:04 | 41.10070 | 1.57377 | 8136 ft | 194 kts | 354° |
| 2026-05-07 21:05 | 41.11372 | 1.57514 | 8046 ft | 191 kts | 22° |
| 2026-05-07 21:05 | 41.12481 | 1.58427 | 7796 ft | 189 kts | 49° |
| 2026-05-07 21:05 | 41.13153 | 1.59894 | 7522 ft | 186 kts | 66° |
| 2026-05-07 21:05 | 41.13689 | 1.61454 | 7266 ft | 186 kts | 66° |
| 2026-05-07 21:06 | 41.14227 | 1.63003 | 7002 ft | 184 kts | 66° |
| 2026-05-07 21:06 | 41.14763 | 1.64543 | 6739 ft | 183 kts | 66° |
| 2026-05-07 21:06 | 41.15296 | 1.66076 | 6499 ft | 183 kts | 66° |
| 2026-05-07 21:06 | 41.15826 | 1.67603 | 6257 ft | 182 kts | 66° |
| 2026-05-07 21:07 | 41.16358 | 1.69133 | 6028 ft | 183 kts | 67° |
| 2026-05-07 21:07 | 41.16903 | 1.70704 | 5781 ft | 190 kts | 66° |
| 2026-05-07 21:07 | 41.17460 | 1.72309 | 5538 ft | 192 kts | 66° |
| 2026-05-07 21:07 | 41.18017 | 1.73916 | 5297 ft | 192 kts | 67° |
| 2026-05-07 21:08 | 41.18573 | 1.75523 | 5051 ft | 191 kts | 67° |
| 2026-05-07 21:08 | 41.19129 | 1.77126 | 4814 ft | 191 kts | 66° |
| 2026-05-07 21:08 | 41.19684 | 1.78729 | 4558 ft | 191 kts | 67° |
| 2026-05-07 21:08 | 41.20237 | 1.80328 | 4306 ft | 190 kts | 67° |
| 2026-05-07 21:09 | 41.20785 | 1.81917 | 4078 ft | 188 kts | 67° |
| 2026-05-07 21:09 | 41.21326 | 1.83498 | 3836 ft | 188 kts | 68° |
| 2026-05-07 21:09 | 41.21868 | 1.85071 | 3587 ft | 186 kts | 66° |
| 2026-05-07 21:09 | 41.22401 | 1.86616 | 3346 ft | 182 kts | 67° |
| 2026-05-07 21:10 | 41.22924 | 1.88131 | 3135 ft | 179 kts | 67° |
| 2026-05-07 21:10 | 41.23438 | 1.89618 | 2884 ft | 175 kts | 67° |
| 2026-05-07 21:10 | 41.23941 | 1.91078 | 2655 ft | 173 kts | 66° |
| 2026-05-07 21:10 | 41.24439 | 1.92522 | 2428 ft | 171 kts | 66° |
| 2026-05-07 21:11 | 41.24931 | 1.93950 | 2195 ft | 169 kts | 66° |
| 2026-05-07 21:11 | 41.25406 | 1.95327 | 1991 ft | 157 kts | 66° |
| 2026-05-07 21:11 | 41.26242 | 1.97756 | 1596 ft | 139 kts | 66° |
| 2026-05-07 21:12 | 41.26648 | 1.98936 | 1401 ft | 138 kts | 66° |
| 2026-05-07 21:12 | 41.27038 | 2.00070 | 1219 ft | 137 kts | 66° |
| 2026-05-07 21:12 | 41.27432 | 2.01216 | 1042 ft | 135 kts | 65° |
| 2026-05-07 21:12 | 41.27828 | 2.02371 | 850 ft | 135 kts | 66° |
| 2026-05-07 21:13 | 41.28220 | 2.03514 | 690 ft | 136 kts | 66° |
| 2026-05-07 21:13 | 41.28609 | 2.04646 | 473 ft | 136 kts | 67° |
| 2026-05-07 21:13 | 41.28995 | 2.05795 | 283 ft | 137 kts | 67° |
| 2026-05-07 21:13 | 41.29394 | 2.06936 | 108 ft | 135 kts | 66° |
| 2026-05-07 21:14 | 41.29772 | 2.08033 | 20 ft | 116 kts | 66° |
| 2026-05-07 21:14 | 41.30030 | 2.08793 | 22 ft | 65 kts | 66° |
| 2026-05-07 21:14 | 41.30177 | 2.09229 | 16 ft | 46 kts | 64° |
| 2026-05-07 21:14 | 41.30307 | 2.09448 | 17 ft | 28 kts | 39° |
| 2026-05-07 21:15 | 41.30420 | 2.09539 | 18 ft | 14 kts | 0° |
| 2026-05-07 21:15 | 41.30497 | 2.09483 | 18 ft | 12 kts | 297° |
| 2026-05-07 21:15 | 41.30484 | 2.09393 | 20 ft | 9 kts | 246° |
| 2026-05-07 21:15 | 41.30459 | 2.09318 | 19 ft | 8 kts | 246° |
| 2026-05-07 21:16 | 41.30432 | 2.09238 | 20 ft | 9 kts | 245° |
| 2026-05-07 21:16 | 41.30404 | 2.09155 | 20 ft | 15 kts | 245° |
| 2026-05-07 21:16 | 41.30356 | 2.09019 | 18 ft | 16 kts | 245° |
| 2026-05-07 21:16 | 41.30308 | 2.08880 | 20 ft | 20 kts | 245° |
| 2026-05-07 21:17 | 41.30247 | 2.08705 | 19 ft | 21 kts | 245° |
| 2026-05-07 21:17 | 41.30194 | 2.08544 | 21 ft | 16 kts | 255° |
| 2026-05-07 21:17 | 41.30242 | 2.08464 | 18 ft | 9 kts | 335° |
| 2026-05-07 21:17 | 41.30288 | 2.08436 | 21 ft | 1 kts | 335° |
| 2026-05-07 21:18 | 41.30289 | 2.08436 | 21 ft | 1 kts | 335° |
| 2026-05-07 21:18 | 41.30323 | 2.08397 | 20 ft | 7 kts | 307° |
| 2026-05-07 21:18 | 41.30345 | 2.08356 | 20 ft | 5 kts | 306° |
| 2026-05-07 21:18 | 41.30361 | 2.08327 | 21 ft | 1 kts | 305° |
| 2026-05-07 21:19 | 41.30365 | 2.08320 | 21 ft | 3 kts | 305° |
| 2026-05-07 21:19 | 41.30366 | 2.08318 | 21 ft | 0 kts | 305° |